Argus, California
Current Conditions -  °F | °C
As of 8:56 PM on Tuesday 25 Nov 2014 (Local Time) from KNID Reporting Station
Clear Clear  
Wind Chill:   Ceiling: Unl
Heat Index:   Visibility: 10mi
Dew Point: -14°   Wind: 9mph
Humidity: 20%   Direction: 220°SW
Pressure: 30.39"   Gusts: NA
Location:  35.6496°N, 117.375°W
Report Text: KNID 260456Z 22008KT 10SM CLR 08/M14 A3039 RMK AO2 SLP299 T00781144 $
Loading
Personal Weather Stations






























Interactive Weather Map New forecast layout! Learn more

10-Day Weather Forecast

Advertisements
Track Severe Weather on mobile